Terminal Aerodrome Forecast
Issued by NWS

Home | Current Version | Previous Version | Text Only | Print | Product List | Glossary On
Versions: 1 2 3 4 5 6 7 8 9 10 11 12 13 14 15 16 17 18 19 20 21
000
FTUS41 KRNK 282108 AAB
TAFBCB
TAF AMD
KBCB 282108Z 2821/2918 19005KT P6SM VCSH SCT060
     FM290000 24003KT 5SM -TSRA OVC025CB
      TEMPO 2900/2903 VRB15G30KT 2SM TSRA OVC020CB
     FM290300 27003KT 5SM -TSRA OVC020CB
     FM290600 28005KT 4SM BR VCSH OVC015
     FM291400 29006KT P6SM SCT015 BKN040=

USA.gov is the U.S. government's official web portal to all federal, state and local government web resources and services.